Time;durP1;ratioP1;P1;durP2;ratioP2;P2;SDS_P1;SDS_P2;PMS_P1;PMS_P2;Temp;Humidity;BMP_temperature;BMP_pressure;BME280_temperature;BME280_humidity;BME280_pressure;Samples;Min_cycle;Max_cycle;Signal;HPM_P1;HPM_P2
2022/08/07 02:21:58;;;;;;;0.43;0.30;;;;;;;-145.06;100.00;60892.56;5967940;23;20066;-90
2022/08/07 02:25:00;;;;;;;0.20;0.20;;;;;;;-145.06;100.00;60892.56;5982036;23;20017;-90
2022/08/07 02:28:47;;;;;;;;;;;;;;;;;;;;;
2022/08/07 02:32:08;;;;;;;;;;;;;;;;;;;;;
2022/08/07 06:01:08;;;;;;;2.38;0.30;;;;;;;-145.06;100.00;60892.56;5994466;22;20367;-92
2022/08/07 06:12:22;;;;;;;0.60;0.32;;;;;;;-145.06;100.00;60892.56;6011045;23;20001;-91
2022/08/07 06:18:44;;;;;;;0.30;0.30;;;;;;;-145.06;100.00;60892.56;6009016;23;20012;-88
2022/08/07 06:21:42;;;;;;;0.43;0.30;;;;;;;-145.06;100.00;60892.56;5977707;23;20016;-89
2022/08/07 06:24:25;;;;;;;0.88;0.45;;;;;;;-145.06;100.00;60892.56;5977592;23;20012;-91
2022/08/07 10:58:38;;;;;;;0.10;0.10;;;;;;;-145.06;100.00;60892.56;5983569;23;20017;-94
2022/08/07 12:58:56;;;;;;;0.10;0.10;;;;;;;-145.06;100.00;60892.56;5969209;23;20097;-91
2022/08/07 13:02:11;;;;;;;0.08;0.08;;;;;;;-145.06;100.00;60892.56;5948743;23;20510;-89
2022/08/07 13:05:27;;;;;;;0.08;0.08;;;;;;;-145.06;100.00;60892.56;5955506;23;20008;-90
2022/08/07 13:08:24;;;;;;;0.30;0.10;;;;;;;-145.06;100.00;60892.56;5977165;23;20009;-90
2022/08/07 13:11:39;;;;;;;0.10;0.10;;;;;;;-145.06;100.00;60892.56;5976760;23;20427;-91
2022/08/07 13:14:41;;;;;;;0.10;0.08;;;;;;;-145.06;100.00;60892.56;5976693;23;20004;-89
2022/08/07 13:18:02;;;;;;;0.30;0.20;;;;;;;-145.06;100.00;60892.56;5976796;23;20443;-91
2022/08/07 13:20:51;;;;;;;0.47;0.10;;;;;;;-145.06;100.00;60892.56;5957370;23;20004;-92
2022/08/07 13:23:54;;;;;;;0.10;0.10;;;;;;;-145.06;100.00;60892.56;5978126;23;20005;-90
2022/08/07 13:26:43;;;;;;;0.20;0.10;;;;;;;-145.06;100.00;60892.56;5991233;23;19997;-93
2022/08/07 13:29:37;;;;;;;0.00;0.00;;;;;;;-145.06;100.00;60892.56;6000117;23;19996;-92
2022/08/07 13:32:52;;;;;;;0.00;0.00;;;;;;;-145.06;100.00;60892.56;5990953;23;20005;-90
2022/08/07 13:35:55;;;;;;;0.10;0.10;;;;;;;-145.06;100.00;60892.56;5989283;23;20005;-92
2022/08/07 13:38:46;;;;;;;0.22;0.10;;;;;;;-145.06;100.00;60892.56;5988890;23;20005;-92
2022/08/07 13:41:49;;;;;;;0.10;0.10;;;;;;;-145.06;100.00;60892.56;6013264;23;20005;-90
2022/08/07 13:45:10;;;;;;;0.22;0.10;;;;;;;-145.06;100.00;60892.56;5989959;23;20004;-90
2022/08/07 13:48:45;;;;;;;0.10;0.10;;;;;;;-145.06;100.00;60892.56;5976556;23;20005;-92
2022/08/07 13:51:59;;;;;;;0.10;0.10;;;;;;;-145.06;100.00;60892.56;5921348;23;20008;-89
2022/08/07 14:01:15;;;;;;;0.00;0.00;;;;;;;-145.06;100.00;60892.56;6022070;23;20017;-91
2022/08/07 14:04:00;;;;;;;0.30;0.10;;;;;;;-145.06;100.00;60892.56;5990652;23;20005;-91
2022/08/07 14:10:05;;;;;;;0.10;0.10;;;;;;;-145.06;100.00;60892.56;6018047;23;20053;-90
2022/08/07 14:12:57;;;;;;;0.32;0.20;;;;;;;-145.06;100.00;60892.56;6018873;23;20445;-90
2022/08/07 14:15:41;;;;;;;0.20;0.13;;;;;;;-145.06;100.00;60892.56;5979884;23;20001;-91
2022/08/07 14:18:35;;;;;;;0.13;0.10;;;;;;;-145.06;100.00;60892.56;5981131;23;20525;-91
2022/08/07 14:21:20;;;;;;;0.10;0.10;;;;;;;-145.06;100.00;60892.56;5981121;23;20040;-92
2022/08/07 14:27:44;;;;;;;0.20;0.10;;;;;;;-145.06;100.00;60892.56;6010590;23;20016;-92
2022/08/07 14:36:25;;;;;;;0.57;0.10;;;;;;;-145.06;100.00;60892.56;5986334;23;20032;-91
2022/08/07 14:39:05;;;;;;;0.10;0.10;;;;;;;-145.06;100.00;60892.56;5980284;23;20009;-92
2022/08/07 14:41:49;;;;;;;1.00;0.10;;;;;;;-145.06;100.00;60892.56;5978569;23;20009;-91
2022/08/07 14:44:31;;;;;;;0.08;0.08;;;;;;;-145.06;100.00;60892.56;5979939;23;20005;-91
2022/08/07 14:47:12;;;;;;;0.32;0.10;;;;;;;-145.06;100.00;60892.56;5980000;23;20001;-91
2022/08/07 14:50:19;;;;;;;0.10;0.10;;;;;;;-145.06;100.00;60892.56;5979761;23;20004;-92
2022/08/07 14:53:02;;;;;;;0.10;0.10;;;;;;;-145.06;100.00;60892.56;5981096;23;20032;-91
2022/08/07 14:55:45;;;;;;;0.10;0.10;;;;;;;-145.06;100.00;60892.56;6012248;23;20004;-91
2022/08/07 14:58:30;;;;;;;0.20;0.20;;;;;;;-145.06;100.00;60892.56;6013228;23;20004;-90
2022/08/07 15:01:19;;;;;;;0.22;0.15;;;;;;;-145.06;100.00;60892.56;5978396;23;20000;-91
2022/08/07 15:07:20;;;;;;;0.57;0.20;;;;;;;-145.06;100.00;60892.56;5932118;23;20002;-91
2022/08/07 15:16:32;;;;;;;0.20;0.20;;;;;;;-145.06;100.00;60892.56;5977667;22;20017;-91
2022/08/07 15:19:55;;;;;;;0.50;0.10;;;;;;;-145.06;100.00;60892.56;5979886;23;20083;-91
2022/08/07 15:22:54;;;;;;;0.40;0.20;;;;;;;-145.06;100.00;60892.56;5979454;23;20005;-91
2022/08/07 15:26:26;;;;;;;;;;;;;;;;;;;;;
2022/08/07 15:29:16;;;;;;;0.22;0.15;;;;;;;-145.06;100.00;60892.56;6015806;23;20004;-89
2022/08/07 15:32:03;;;;;;;0.10;0.10;;;;;;;-145.06;100.00;60892.56;5982752;23;20005;-90
2022/08/07 15:35:05;;;;;;;;;;;;;;;;;;;;;
2022/08/07 15:38:44;;;;;;;;;;;;;;;;;;;;;
2022/08/07 15:42:07;;;;;;;0.20;0.20;;;;;;;-145.06;100.00;60892.56;5978336;23;20300;-90
2022/08/07 15:45:06;;;;;;;0.75;0.17;;;;;;;-145.06;100.00;60892.56;5950946;23;20064;-90
2022/08/07 15:48:10;;;;;;;0.10;0.10;;;;;;;-145.06;100.00;60892.56;5996399;23;20056;-89
2022/08/07 15:50:54;;;;;;;0.32;0.20;;;;;;;-145.06;100.00;60892.56;5985317;23;20004;-90
2022/08/07 15:53:41;;;;;;;0.15;0.10;;;;;;;-145.06;100.00;60892.56;5985183;23;20009;-89
2022/08/07 15:56:34;;;;;;;0.40;0.10;;;;;;;-145.06;100.00;60892.56;6016350;23;20028;-92
2022/08/07 15:59:15;;;;;;;0.30;0.10;;;;;;;-145.06;100.00;60892.56;6006533;23;20009;-90
2022/08/07 16:01:56;;;;;;;0.52;0.10;;;;;;;-145.06;100.00;60892.56;5983512;23;20008;-90
2022/08/07 16:04:37;;;;;;;0.00;0.00;;;;;;;-145.06;100.00;60892.56;5984000;23;20009;-90
2022/08/07 16:23:01;;;;;;;;;;;;;;;;;;;;;
2022/08/07 16:26:03;;;;;;;0.40;0.20;;;;;;;-145.06;100.00;60892.56;6011874;23;20004;-92
2022/08/07 16:29:20;;;;;;;0.10;0.10;;;;;;;-145.06;100.00;60892.56;5980307;23;20004;-92
2022/08/07 16:32:09;;;;;;;0.13;0.10;;;;;;;-145.06;100.00;60892.56;6013992;23;20001;-91
2022/08/07 16:34:53;;;;;;;0.30;0.20;;;;;;;-145.06;100.00;60892.56;5986339;23;20004;-93
2022/08/07 16:37:38;;;;;;;0.30;0.15;;;;;;;-145.06;100.00;60892.56;5983954;23;20079;-92
2022/08/07 16:40:54;;;;;;;0.30;0.20;;;;;;;-145.06;100.00;60892.56;5982551;23;20001;-90
2022/08/07 16:43:39;;;;;;;0.10;0.10;;;;;;;-145.06;100.00;60892.56;5983282;23;20004;-92
2022/08/07 16:46:27;;;;;;;0.20;0.10;;;;;;;-145.06;100.00;60892.56;5981162;23;20008;-90
2022/08/07 16:49:23;;;;;;;0.17;0.17;;;;;;;-145.06;100.00;60892.56;5980729;23;20071;-90
2022/08/07 16:52:29;;;;;;;0.20;0.10;;;;;;;-145.06;100.00;60892.56;5983111;23;20005;-90
2022/08/07 16:55:37;;;;;;;0.20;0.17;;;;;;;-145.06;100.00;60892.56;5979230;23;20012;-92
2022/08/07 16:58:47;;;;;;;0.20;0.10;;;;;;;-145.06;100.00;60892.56;5978176;23;20009;-90
2022/08/07 17:01:26;;;;;;;;;;;;;;;-145.06;100.00;60892.56;5979829;23;20036;-90
2022/08/07 17:04:18;;;;;;;0.93;0.20;;;;;;;-145.06;100.00;60892.56;5980064;23;20315;-90
2022/08/07 17:07:08;;;;;;;0.35;0.13;;;;;;;-145.06;100.00;60892.56;5990190;23;19989;-90
2022/08/07 17:10:07;;;;;;;0.05;0.05;;;;;;;-145.06;100.00;60892.56;6033812;23;19996;-90
2022/08/07 17:12:53;;;;;;;0.20;0.20;;;;;;;-145.06;100.00;60892.56;5989902;23;20013;-90
2022/08/07 17:15:43;;;;;;;0.38;0.30;;;;;;;-145.06;100.00;60892.56;5983005;23;20001;-89
2022/08/07 17:18:37;;;;;;;0.30;0.15;;;;;;;-145.06;100.00;60892.56;5984696;23;20020;-89
2022/08/07 17:21:48;;;;;;;0.17;0.13;;;;;;;-145.06;100.00;60892.56;5984421;23;20012;-89
2022/08/07 17:24:41;;;;;;;0.10;0.10;;;;;;;-145.06;100.00;60892.56;5985111;23;20000;-90
2022/08/07 17:27:55;;;;;;;0.30;0.20;;;;;;;-145.06;100.00;60892.56;5984373;23;20061;-89
2022/08/07 17:30:59;;;;;;;0.30;0.10;;;;;;;-145.06;100.00;60892.56;5980715;23;20005;-88
2022/08/07 17:33:46;;;;;;;0.20;0.20;;;;;;;-145.06;100.00;60892.56;5979491;23;20462;-90
2022/08/07 17:36:33;;;;;;;0.45;0.20;;;;;;;-145.06;100.00;60892.56;5980405;23;20005;-90
2022/08/07 17:39:19;;;;;;;0.10;0.10;;;;;;;-145.06;100.00;60892.56;5977631;23;20008;-90
2022/08/07 17:42:05;;;;;;;0.10;0.10;;;;;;;-145.06;100.00;60892.56;5979507;23;20000;-90
2022/08/07 17:44:49;;;;;;;0.32;0.20;;;;;;;-145.06;100.00;60892.56;5979907;23;20032;-90
2022/08/07 17:47:35;;;;;;;0.15;0.15;;;;;;;-145.06;100.00;60892.56;5979526;23;20008;-91
2022/08/07 17:50:19;;;;;;;0.13;0.10;;;;;;;-145.06;100.00;60892.56;5979491;23;20008;-92
2022/08/07 17:53:07;;;;;;;0.20;0.10;;;;;;;-145.06;100.00;60892.56;5978827;23;20004;-90
2022/08/07 17:55:54;;;;;;;0.17;0.17;;;;;;;-145.06;100.00;60892.56;5978422;23;20320;-90
2022/08/07 17:58:49;;;;;;;0.28;0.20;;;;;;;-145.06;100.00;60892.56;5975005;23;20009;-90
2022/08/07 18:01:49;;;;;;;0.20;0.20;;;;;;;-145.06;100.00;60892.56;5995652;23;20012;-91
2022/08/07 18:05:01;;;;;;;0.80;0.10;;;;;;;-145.06;100.00;60892.56;5987778;23;20008;-91
2022/08/07 18:08:14;;;;;;;;;;;;;;;;;;;;;
2022/08/07 18:11:01;;;;;;;0.20;0.10;;;;;;;-145.06;100.00;60892.56;6001719;23;20017;-91
2022/08/07 18:13:47;;;;;;;0.20;0.20;;;;;;;-145.06;100.00;60892.56;5973707;23;20021;-92
2022/08/07 18:16:38;;;;;;;0.20;0.20;;;;;;;-145.06;100.00;60892.56;5978307;23;20384;-92
2022/08/07 18:19:36;;;;;;;0.20;0.20;;;;;;;-145.06;100.00;60892.56;5974002;23;20016;-92
2022/08/07 18:22:42;;;;;;;0.10;0.10;;;;;;;-145.06;100.00;60892.56;5978672;23;20009;-92
2022/08/07 18:25:32;;;;;;;0.08;0.08;;;;;;;-145.06;100.00;60892.56;5972798;23;20009;-91
2022/08/07 18:29:17;;;;;;;;;;;;;;;;;;;;;
2022/08/07 18:32:32;;;;;;;0.10;0.10;;;;;;;-145.06;100.00;60892.56;6010357;23;20004;-92
2022/08/07 18:35:29;;;;;;;0.10;0.10;;;;;;;-145.06;100.00;60892.56;5981275;23;20507;-92
2022/08/07 18:38:48;;;;;;;0.20;0.20;;;;;;;-145.06;100.00;60892.56;5977760;23;20063;-91
2022/08/07 18:42:10;;;;;;;0.30;0.10;;;;;;;-145.06;100.00;60892.56;5979075;23;19996;-93
2022/08/07 18:45:08;;;;;;;0.65;0.20;;;;;;;-145.06;100.00;60892.56;5978199;23;20036;-91
2022/08/07 18:48:49;;;;;;;0.22;0.20;;;;;;;-145.06;100.00;60892.56;5978098;23;20028;-92
2022/08/07 18:52:11;;;;;;;0.20;0.10;;;;;;;-145.06;100.00;60892.56;5884204;23;20034;-92
2022/08/07 18:55:21;;;;;;;0.17;0.15;;;;;;;-145.06;100.00;60892.56;5884130;23;20006;-92
2022/08/07 18:58:28;;;;;;;0.17;0.13;;;;;;;-145.06;100.00;60892.56;5978253;23;20005;-91
2022/08/07 19:01:20;;;;;;;0.10;0.10;;;;;;;-145.06;100.00;60892.56;5978572;23;20001;-92
2022/08/07 19:04:47;;;;;;;0.40;0.20;;;;;;;-145.06;100.00;60892.56;5979035;23;20001;-93
2022/08/07 19:07:40;;;;;;;0.30;0.20;;;;;;;-145.06;100.00;60892.56;5977327;23;20004;-92
2022/08/07 19:11:25;;;;;;;0.20;0.10;;;;;;;-145.06;100.00;60892.56;6011386;23;20312;-91
2022/08/07 19:14:57;;;;;;;0.43;0.20;;;;;;;-145.06;100.00;60892.56;5884399;23;20078;-92
2022/08/07 19:18:39;;;;;;;0.30;0.15;;;;;;;-145.06;100.00;60892.56;5834308;23;20004;-91
2022/08/07 19:21:25;;;;;;;0.20;0.20;;;;;;;-145.06;100.00;60892.56;5906149;23;20005;-91
2022/08/07 19:24:12;;;;;;;0.20;0.10;;;;;;;-145.06;100.00;60892.56;6010757;23;20005;-91
2022/08/07 19:26:56;;;;;;;0.65;0.30;;;;;;;-145.06;100.00;60892.56;5978164;23;20000;-94
2022/08/07 19:29:41;;;;;;;0.40;0.10;;;;;;;-145.06;100.00;60892.56;5978876;23;20312;-91
2022/08/07 19:35:40;;;;;;;0.20;0.20;;;;;;;-145.06;100.00;60892.56;6002056;23;19996;-93
2022/08/07 19:38:22;;;;;;;0.13;0.10;;;;;;;-145.06;100.00;60892.56;5999634;23;20004;-91
2022/08/07 19:41:03;;;;;;;0.28;0.20;;;;;;;-145.06;100.00;60892.56;6000054;23;20032;-91
2022/08/07 19:43:43;;;;;;;0.28;0.10;;;;;;;-145.06;100.00;60892.56;5978998;23;20005;-92
2022/08/07 19:46:26;;;;;;;0.20;0.20;;;;;;;-145.06;100.00;60892.56;5978928;23;20009;-91
2022/08/07 19:49:14;;;;;;;0.20;0.20;;;;;;;-145.06;100.00;60892.56;5979122;23;20312;-92
2022/08/07 19:51:53;;;;;;;0.45;0.13;;;;;;;-145.06;100.00;60892.56;6000943;23;20036;-93
2022/08/07 19:54:47;;;;;;;0.20;0.20;;;;;;;-145.06;100.00;60892.56;5979667;23;20375;-93
2022/08/07 19:57:45;;;;;;;0.10;0.10;;;;;;;-145.06;100.00;60892.56;5980511;23;20005;-90
2022/08/07 20:00:29;;;;;;;0.20;0.20;;;;;;;-145.06;100.00;60892.56;6001800;23;20005;-92
2022/08/07 20:03:19;;;;;;;0.10;0.10;;;;;;;-145.06;100.00;60892.56;5980048;23;20005;-92
2022/08/07 20:06:03;;;;;;;;;;;;;;;-145.06;100.00;60892.56;5980691;23;20308;-92
2022/08/07 20:08:47;;;;;;;0.13;0.10;;;;;;;-145.06;100.00;60892.56;5980423;23;19908;-90
2022/08/07 20:11:28;;;;;;;0.17;0.10;;;;;;;-145.06;100.00;60892.56;5979870;23;20008;-91
2022/08/07 20:14:15;;;;;;;0.65;0.30;;;;;;;-145.06;100.00;60892.56;5980423;23;20004;-91
2022/08/07 20:16:57;;;;;;;0.17;0.17;;;;;;;-145.06;100.00;60892.56;5979395;23;20005;-92
2022/08/07 20:19:37;;;;;;;0.47;0.30;;;;;;;-145.06;100.00;60892.56;5980574;23;20332;-92
2022/08/07 20:22:21;;;;;;;0.10;0.10;;;;;;;-145.06;100.00;60892.56;5979950;23;20238;-91
2022/08/07 20:25:07;;;;;;;0.20;0.20;;;;;;;-145.06;100.00;60892.56;6011100;23;20008;-91
2022/08/07 20:27:49;;;;;;;0.40;0.20;;;;;;;-145.06;100.00;60892.56;5979773;23;20431;-91
2022/08/07 20:30:33;;;;;;;0.30;0.20;;;;;;;-145.06;100.00;60892.56;5979485;23;20009;-91
2022/08/07 20:33:15;;;;;;;0.15;0.15;;;;;;;-145.06;100.00;60892.56;5980033;23;20008;-91
2022/08/07 20:35:54;;;;;;;0.40;0.20;;;;;;;-145.06;100.00;60892.56;5980258;23;20001;-91
2022/08/07 20:38:35;;;;;;;0.30;0.20;;;;;;;-145.06;100.00;60892.56;5987688;23;20012;-92
2022/08/07 20:41:17;;;;;;;0.20;0.20;;;;;;;-145.06;100.00;60892.56;6000033;22;20312;-92
2022/08/07 20:43:43;;;;;;;0.28;0.13;;;;;;;-145.06;100.00;60892.56;5962562;23;20137;-91
2022/08/07 20:46:27;;;;;;;0.30;0.20;;;;;;;-145.06;100.00;60892.56;5922442;23;20006;-90
2022/08/07 20:49:09;;;;;;;0.20;0.20;;;;;;;-145.06;100.00;60892.56;5923012;23;20009;-93
2022/08/07 20:51:49;;;;;;;0.30;0.30;;;;;;;-145.06;100.00;60892.56;5922993;23;20432;-91
2022/08/07 20:54:28;;;;;;;0.25;0.25;;;;;;;-145.06;100.00;60892.56;5922267;23;20404;-91
2022/08/07 20:57:08;;;;;;;0.55;0.25;;;;;;;-145.06;100.00;60892.56;5954418;23;20005;-92
2022/08/07 20:59:49;;;;;;;0.28;0.22;;;;;;;-145.06;100.00;60892.56;5922963;23;20009;-92
2022/08/07 21:05:42;;;;;;;1.02;0.30;;;;;;;-145.06;100.00;60892.56;5954214;23;20001;-92
2022/08/07 21:08:27;;;;;;;0.30;0.15;;;;;;;-145.06;100.00;60892.56;5922344;23;20001;-91
2022/08/07 21:11:14;;;;;;;0.30;0.30;;;;;;;-145.06;100.00;60892.56;5922488;23;20306;-91
2022/08/07 21:13:55;;;;;;;0.10;0.10;;;;;;;-145.06;100.00;60892.56;5923006;23;20001;-91
2022/08/07 21:16:39;;;;;;;0.20;0.20;;;;;;;-145.06;100.00;60892.56;5922407;23;19997;-92
2022/08/07 21:19:19;;;;;;;0.30;0.20;;;;;;;-145.06;100.00;60892.56;5923214;23;20013;-90
2022/08/07 21:22:03;;;;;;;0.20;0.20;;;;;;;-145.06;100.00;60892.56;5922393;23;20002;-92
2022/08/07 21:24:44;;;;;;;0.63;0.32;;;;;;;-145.06;100.00;60892.56;5922327;23;20432;-92
2022/08/07 21:27:23;;;;;;;0.63;0.22;;;;;;;-145.06;100.00;60892.56;5923012;23;20009;-91
2022/08/07 21:30:07;;;;;;;0.22;0.20;;;;;;;-145.06;100.00;60892.56;5923508;23;20088;-91
2022/08/07 21:33:01;;;;;;;0.73;0.40;;;;;;;-145.06;100.00;60892.56;5922143;23;20009;-92
2022/08/07 21:35:45;;;;;;;0.20;0.20;;;;;;;-145.06;100.00;60892.56;5923048;23;20002;-90
2022/08/07 21:39:08;;;;;;;0.75;0.30;;;;;;;-145.06;100.00;60892.56;5922682;23;20009;-91
2022/08/07 21:41:57;;;;;;;0.30;0.30;;;;;;;-145.06;100.00;60892.56;5922851;23;20006;-90
2022/08/07 21:44:46;;;;;;;0.28;0.28;;;;;;;-145.06;100.00;60892.56;5922012;23;20444;-91
2022/08/07 21:47:44;;;;;;;0.20;0.20;;;;;;;-145.06;100.00;60892.56;5922461;23;20029;-90
2022/08/07 21:50:33;;;;;;;0.45;0.30;;;;;;;-145.06;100.00;60892.56;5954432;23;20006;-90
2022/08/07 21:53:17;;;;;;;0.20;0.20;;;;;;;-145.06;100.00;60892.56;5924773;23;20080;-90
2022/08/07 21:56:13;;;;;;;1.02;0.30;;;;;;;-145.06;100.00;60892.56;5924822;23;20005;-90
2022/08/07 21:58:57;;;;;;;0.35;0.35;;;;;;;-145.06;100.00;60892.56;5924458;23;20005;-90
2022/08/07 22:01:46;;;;;;;0.22;0.20;;;;;;;-145.06;100.00;60892.56;5925851;23;20530;-91
2022/08/07 22:04:32;;;;;;;0.40;0.30;;;;;;;-145.06;100.00;60892.56;5925286;23;20009;-91
2022/08/07 22:07:19;;;;;;;0.40;0.25;;;;;;;-145.06;100.00;60892.56;5925180;23;20005;-91
2022/08/07 22:10:01;;;;;;;2.45;0.30;;;;;;;-145.06;100.00;60892.56;5925668;23;20005;-91
2022/08/07 22:12:46;;;;;;;0.40;0.28;;;;;;;-145.06;100.00;60892.56;5925843;23;20005;-90
2022/08/07 22:16:11;;;;;;;0.50;0.35;;;;;;;-145.06;100.00;60892.56;5924469;23;20005;-91
2022/08/07 22:19:03;;;;;;;0.85;0.30;;;;;;;-145.06;100.00;60892.56;5918455;23;20005;-92
2022/08/07 22:21:51;;;;;;;1.33;0.40;;;;;;;-145.06;100.00;60892.56;5925169;23;20295;-94
2022/08/07 22:24:44;;;;;;;0.77;0.30;;;;;;;-145.06;100.00;60892.56;5925202;23;20060;-91
2022/08/07 22:27:43;;;;;;;0.38;0.30;;;;;;;-145.06;100.00;60892.56;5924379;23;20009;-92
2022/08/07 22:30:23;;;;;;;0.55;0.40;;;;;;;-145.06;100.00;60892.56;5924425;23;20301;-91
2022/08/07 22:33:12;;;;;;;2.22;0.28;;;;;;;-145.06;100.00;60892.56;5925453;23;20010;-92
2022/08/07 22:36:05;;;;;;;0.60;0.40;;;;;;;-145.06;100.00;60892.56;5924853;23;20001;-92
2022/08/07 22:38:59;;;;;;;1.17;0.40;;;;;;;-145.06;100.00;60892.56;5925277;23;20006;-91
2022/08/07 22:42:08;;;;;;;0.70;0.40;;;;;;;-145.06;100.00;60892.56;5925120;23;20005;-91
2022/08/07 22:44:52;;;;;;;0.80;0.57;;;;;;;-145.06;100.00;60892.56;5925319;23;20029;-93
2022/08/07 22:47:37;;;;;;;0.50;0.30;;;;;;;-145.06;100.00;60892.56;5925468;23;20326;-92
2022/08/07 22:50:43;;;;;;;0.50;0.30;;;;;;;-145.06;100.00;60892.56;5925849;23;20009;-91
2022/08/07 22:53:41;;;;;;;0.50;0.30;;;;;;;-145.06;100.00;60892.56;5925780;23;20002;-90
2022/08/07 22:56:34;;;;;;;1.15;0.30;;;;;;;-145.06;100.00;60892.56;5925389;23;20029;-91
2022/08/07 22:59:18;;;;;;;0.30;0.30;;;;;;;-145.06;100.00;60892.56;5924885;23;20013;-91
2022/08/07 23:02:13;;;;;;;1.65;0.40;;;;;;;-145.06;100.00;60892.56;5925249;23;20001;-90
2022/08/07 23:05:04;;;;;;;0.70;0.47;;;;;;;-145.06;100.00;60892.56;5925149;23;20006;-92
2022/08/07 23:08:06;;;;;;;0.38;0.30;;;;;;;-145.06;100.00;60892.56;5925518;23;20006;-91
2022/08/07 23:11:10;;;;;;;0.47;0.40;;;;;;;-145.06;100.00;60892.56;5943307;23;20005;-90
2022/08/07 23:14:05;;;;;;;1.00;0.30;;;;;;;-145.06;100.00;60892.56;5923358;23;20310;-92
2022/08/07 23:16:55;;;;;;;1.75;0.50;;;;;;;-145.06;100.00;60892.56;5924308;23;20313;-90
2022/08/07 23:22:57;;;;;;;0.38;0.30;;;;;;;-145.06;100.00;60892.56;5955512;23;20329;-91
2022/08/07 23:26:13;;;;;;;0.60;0.38;;;;;;;-145.06;100.00;60892.56;5923403;23;20005;-91
2022/08/07 23:29:23;;;;;;;0.40;0.30;;;;;;;-145.06;100.00;60892.56;5924415;23;20005;-91
2022/08/07 23:32:16;;;;;;;0.52;0.40;;;;;;;-145.06;100.00;60892.56;5923100;23;20006;-91
2022/08/07 23:35:24;;;;;;;1.17;0.30;;;;;;;-145.06;100.00;60892.56;5923104;23;20006;-91
2022/08/07 23:38:22;;;;;;;0.47;0.30;;;;;;;-145.06;100.00;60892.56;5923725;23;20021;-91
2022/08/07 23:41:22;;;;;;;0.75;0.47;;;;;;;-145.06;100.00;60892.56;5924197;23;20005;-91
2022/08/07 23:44:24;;;;;;;0.70;0.30;;;;;;;-145.06;100.00;60892.56;5924489;23;20009;-92
2022/08/07 23:47:34;;;;;;;0.43;0.40;;;;;;;-145.06;100.00;60892.56;5924541;23;20009;-92
2022/08/07 23:50:47;;;;;;;1.02;0.30;;;;;;;-145.06;100.00;60892.56;5924840;23;20088;-91
2022/08/07 23:53:42;;;;;;;0.45;0.40;;;;;;;-145.06;100.00;60892.56;5925453;23;20005;-92
2022/08/07 23:56:24;;;;;;;0.90;0.45;;;;;;;-145.06;100.00;60892.56;5933840;23;20025;-90
2022/08/07 23:59:16;;;;;;;1.67;0.60;;;;;;;-145.06;100.00;60892.56;5943977;23;20037;-91
